sensor_id;sensor_type;location;lat;lon;timestamp;P1;durP1;ratioP1;P2;durP2;ratioP2
45007;SDS011;30743;52.008;5.644;2023-03-17T00:01:47;3.95;;;1.98;;
45007;SDS011;30743;52.008;5.644;2023-03-17T00:04:15;3.40;;;2.20;;
45007;SDS011;30743;52.008;5.644;2023-03-17T00:06:42;2.97;;;2.13;;
45007;SDS011;30743;52.008;5.644;2023-03-17T00:09:14;3.92;;;1.98;;
45007;SDS011;30743;52.008;5.644;2023-03-17T00:11:42;4.07;;;2.15;;
45007;SDS011;30743;52.008;5.644;2023-03-17T00:14:08;3.65;;;2.25;;
45007;SDS011;30743;52.008;5.644;2023-03-17T00:16:41;3.15;;;2.38;;
45007;SDS011;30743;52.008;5.644;2023-03-17T00:19:28;5.18;;;2.13;;
45007;SDS011;30743;52.008;5.644;2023-03-17T00:21:56;3.15;;;1.98;;
45007;SDS011;30743;52.008;5.644;2023-03-17T00:24:22;3.03;;;2.13;;
45007;SDS011;30743;52.008;5.644;2023-03-17T00:26:48;4.47;;;1.90;;
45007;SDS011;30743;52.008;5.644;2023-03-17T00:29:13;3.72;;;2.28;;
45007;SDS011;30743;52.008;5.644;2023-03-17T00:31:40;3.92;;;2.00;;
45007;SDS011;30743;52.008;5.644;2023-03-17T00:34:09;3.77;;;2.17;;
45007;SDS011;30743;52.008;5.644;2023-03-17T00:36:39;3.67;;;2.38;;
45007;SDS011;30743;52.008;5.644;2023-03-17T00:39:08;3.30;;;2.30;;
45007;SDS011;30743;52.008;5.644;2023-03-17T00:41:40;5.28;;;1.90;;
45007;SDS011;30743;52.008;5.644;2023-03-17T00:44:06;3.78;;;1.80;;
45007;SDS011;30743;52.008;5.644;2023-03-17T00:46:31;8.60;;;2.80;;
45007;SDS011;30743;52.008;5.644;2023-03-17T00:49:02;5.35;;;1.92;;
45007;SDS011;30743;52.008;5.644;2023-03-17T00:51:40;3.70;;;2.15;;
45007;SDS011;30743;52.008;5.644;2023-03-17T00:54:07;3.95;;;2.13;;
45007;SDS011;30743;52.008;5.644;2023-03-17T00:56:34;4.72;;;1.98;;
45007;SDS011;30743;52.008;5.644;2023-03-17T00:59:01;3.20;;;1.90;;
45007;SDS011;30743;52.008;5.644;2023-03-17T01:01:27;3.45;;;2.17;;
45007;SDS011;30743;52.008;5.644;2023-03-17T01:03:53;2.75;;;1.83;;
45007;SDS011;30743;52.008;5.644;2023-03-17T01:06:18;7.43;;;3.05;;
45007;SDS011;30743;52.008;5.644;2023-03-17T01:08:44;2.55;;;1.80;;
45007;SDS011;30743;52.008;5.644;2023-03-17T01:11:17;2.92;;;2.00;;
45007;SDS011;30743;52.008;5.644;2023-03-17T01:13:43;3.92;;;2.00;;
45007;SDS011;30743;52.008;5.644;2023-03-17T01:16:09;4.47;;;2.20;;
45007;SDS011;30743;52.008;5.644;2023-03-17T01:18:36;3.97;;;2.47;;
45007;SDS011;30743;52.008;5.644;2023-03-17T01:21:02;4.20;;;1.80;;
45007;SDS011;30743;52.008;5.644;2023-03-17T01:23:28;3.60;;;1.80;;
45007;SDS011;30743;52.008;5.644;2023-03-17T01:25:55;2.78;;;1.80;;
45007;SDS011;30743;52.008;5.644;2023-03-17T01:28:21;4.18;;;1.85;;
45007;SDS011;30743;52.008;5.644;2023-03-17T01:30:47;4.00;;;2.00;;
45007;SDS011;30743;52.008;5.644;2023-03-17T01:33:13;3.60;;;2.33;;
45007;SDS011;30743;52.008;5.644;2023-03-17T01:35:39;4.28;;;1.90;;
45007;SDS011;30743;52.008;5.644;2023-03-17T01:38:06;3.05;;;1.98;;
45007;SDS011;30743;52.008;5.644;2023-03-17T01:40:36;4.25;;;1.98;;
45007;SDS011;30743;52.008;5.644;2023-03-17T01:48:39;2.75;;;1.70;;
45007;SDS011;30743;52.008;5.644;2023-03-17T01:54:04;5.75;;;2.10;;
45007;SDS011;30743;52.008;5.644;2023-03-17T01:56:33;2.75;;;1.60;;
45007;SDS011;30743;52.008;5.644;2023-03-17T01:59:00;4.28;;;1.95;;
45007;SDS011;30743;52.008;5.644;2023-03-17T02:01:32;6.22;;;1.73;;
45007;SDS011;30743;52.008;5.644;2023-03-17T02:04:01;3.25;;;2.13;;
45007;SDS011;30743;52.008;5.644;2023-03-17T02:06:28;3.03;;;1.52;;
45007;SDS011;30743;52.008;5.644;2023-03-17T02:08:56;6.47;;;1.85;;
45007;SDS011;30743;52.008;5.644;2023-03-17T02:11:22;4.32;;;1.90;;
45007;SDS011;30743;52.008;5.644;2023-03-17T02:13:47;2.95;;;1.52;;
45007;SDS011;30743;52.008;5.644;2023-03-17T02:16:14;3.03;;;1.80;;
45007;SDS011;30743;52.008;5.644;2023-03-17T02:18:41;3.10;;;1.80;;
45007;SDS011;30743;52.008;5.644;2023-03-17T02:24:01;5.25;;;1.90;;
45007;SDS011;30743;52.008;5.644;2023-03-17T02:26:31;1.70;;;1.30;;
45007;SDS011;30743;52.008;5.644;2023-03-17T02:28:59;3.25;;;1.77;;
45007;SDS011;30743;52.008;5.644;2023-03-17T02:31:25;6.05;;;1.63;;
45007;SDS011;30743;52.008;5.644;2023-03-17T02:33:51;2.60;;;1.90;;
45007;SDS011;30743;52.008;5.644;2023-03-17T02:36:17;3.05;;;1.50;;
45007;SDS011;30743;52.008;5.644;2023-03-17T02:38:44;4.45;;;1.63;;
45007;SDS011;30743;52.008;5.644;2023-03-17T02:41:09;5.38;;;2.08;;
45007;SDS011;30743;52.008;5.644;2023-03-17T02:43:35;4.80;;;1.80;;
45007;SDS011;30743;52.008;5.644;2023-03-17T02:46:01;2.15;;;1.65;;
45007;SDS011;30743;52.008;5.644;2023-03-17T02:48:27;3.58;;;1.65;;
45007;SDS011;30743;52.008;5.644;2023-03-17T02:50:53;3.13;;;1.65;;
45007;SDS011;30743;52.008;5.644;2023-03-17T02:53:18;4.43;;;1.58;;
45007;SDS011;30743;52.008;5.644;2023-03-17T02:55:44;2.83;;;1.55;;
45007;SDS011;30743;52.008;5.644;2023-03-17T02:58:09;2.47;;;1.30;;
45007;SDS011;30743;52.008;5.644;2023-03-17T03:00:35;2.50;;;1.40;;
45007;SDS011;30743;52.008;5.644;2023-03-17T03:03:02;2.05;;;1.58;;
45007;SDS011;30743;52.008;5.644;2023-03-17T03:05:28;3.42;;;1.60;;
45007;SDS011;30743;52.008;5.644;2023-03-17T03:07:53;4.45;;;1.63;;
45007;SDS011;30743;52.008;5.644;2023-03-17T03:10:19;3.30;;;1.35;;
45007;SDS011;30743;52.008;5.644;2023-03-17T03:12:45;2.70;;;1.23;;
45007;SDS011;30743;52.008;5.644;2023-03-17T03:15:11;5.20;;;1.25;;
45007;SDS011;30743;52.008;5.644;2023-03-17T03:17:37;2.42;;;1.50;;
45007;SDS011;30743;52.008;5.644;2023-03-17T03:20:03;5.10;;;1.17;;
45007;SDS011;30743;52.008;5.644;2023-03-17T03:22:29;4.60;;;1.55;;
45007;SDS011;30743;52.008;5.644;2023-03-17T03:24:54;2.03;;;1.17;;
45007;SDS011;30743;52.008;5.644;2023-03-17T03:27:20;2.28;;;1.80;;
45007;SDS011;30743;52.008;5.644;2023-03-17T03:29:46;3.08;;;1.60;;
45007;SDS011;30743;52.008;5.644;2023-03-17T03:32:11;3.03;;;1.75;;
45007;SDS011;30743;52.008;5.644;2023-03-17T03:34:37;2.75;;;1.50;;
45007;SDS011;30743;52.008;5.644;2023-03-17T03:37:02;4.70;;;1.20;;
45007;SDS011;30743;52.008;5.644;2023-03-17T03:39:28;3.10;;;1.55;;
45007;SDS011;30743;52.008;5.644;2023-03-17T03:41:53;2.88;;;1.63;;
45007;SDS011;30743;52.008;5.644;2023-03-17T03:44:22;1.80;;;1.40;;
45007;SDS011;30743;52.008;5.644;2023-03-17T03:46:48;2.65;;;1.50;;
45007;SDS011;30743;52.008;5.644;2023-03-17T03:49:13;3.45;;;1.75;;
45007;SDS011;30743;52.008;5.644;2023-03-17T03:51:39;2.30;;;1.45;;
45007;SDS011;30743;52.008;5.644;2023-03-17T03:54:04;2.70;;;1.65;;
45007;SDS011;30743;52.008;5.644;2023-03-17T03:56:30;2.78;;;1.52;;
45007;SDS011;30743;52.008;5.644;2023-03-17T03:58:55;2.78;;;1.50;;
45007;SDS011;30743;52.008;5.644;2023-03-17T04:01:21;2.70;;;1.58;;
45007;SDS011;30743;52.008;5.644;2023-03-17T04:03:46;4.28;;;1.80;;
45007;SDS011;30743;52.008;5.644;2023-03-17T04:06:12;3.90;;;1.60;;
45007;SDS011;30743;52.008;5.644;2023-03-17T04:08:38;2.50;;;1.58;;
45007;SDS011;30743;52.008;5.644;2023-03-17T04:11:03;2.72;;;1.90;;
45007;SDS011;30743;52.008;5.644;2023-03-17T04:13:29;5.50;;;1.65;;
45007;SDS011;30743;52.008;5.644;2023-03-17T04:15:54;3.45;;;1.58;;
45007;SDS011;30743;52.008;5.644;2023-03-17T04:18:20;3.28;;;1.80;;
45007;SDS011;30743;52.008;5.644;2023-03-17T04:20:45;2.28;;;1.35;;
45007;SDS011;30743;52.008;5.644;2023-03-17T04:23:11;4.65;;;1.70;;
45007;SDS011;30743;52.008;5.644;2023-03-17T04:25:36;2.63;;;1.55;;
45007;SDS011;30743;52.008;5.644;2023-03-17T04:28:03;2.53;;;1.67;;
45007;SDS011;30743;52.008;5.644;2023-03-17T04:30:28;3.40;;;1.80;;
45007;SDS011;30743;52.008;5.644;2023-03-17T04:32:54;2.25;;;1.45;;
45007;SDS011;30743;52.008;5.644;2023-03-17T04:35:20;4.65;;;1.90;;
45007;SDS011;30743;52.008;5.644;2023-03-17T04:37:46;4.25;;;1.90;;
45007;SDS011;30743;52.008;5.644;2023-03-17T04:40:13;2.78;;;1.73;;
45007;SDS011;30743;52.008;5.644;2023-03-17T04:42:40;4.78;;;2.10;;
45007;SDS011;30743;52.008;5.644;2023-03-17T04:45:07;4.35;;;2.05;;
45007;SDS011;30743;52.008;5.644;2023-03-17T04:47:35;2.72;;;1.75;;
45007;SDS011;30743;52.008;5.644;2023-03-17T04:50:01;4.18;;;2.25;;
45007;SDS011;30743;52.008;5.644;2023-03-17T04:52:27;9.23;;;2.17;;
45007;SDS011;30743;52.008;5.644;2023-03-17T04:54:53;3.17;;;1.90;;
45007;SDS011;30743;52.008;5.644;2023-03-17T04:57:19;4.82;;;1.90;;
45007;SDS011;30743;52.008;5.644;2023-03-17T04:59:46;5.03;;;2.20;;
45007;SDS011;30743;52.008;5.644;2023-03-17T05:02:11;3.97;;;2.22;;
45007;SDS011;30743;52.008;5.644;2023-03-17T05:04:37;2.85;;;1.70;;
45007;SDS011;30743;52.008;5.644;2023-03-17T05:07:02;4.68;;;1.83;;
45007;SDS011;30743;52.008;5.644;2023-03-17T05:09:28;5.43;;;1.80;;
45007;SDS011;30743;52.008;5.644;2023-03-17T05:11:54;5.82;;;1.90;;
45007;SDS011;30743;52.008;5.644;2023-03-17T05:14:20;4.85;;;2.20;;
45007;SDS011;30743;52.008;5.644;2023-03-17T05:16:46;4.35;;;2.35;;
45007;SDS011;30743;52.008;5.644;2023-03-17T05:19:12;5.03;;;2.10;;
45007;SDS011;30743;52.008;5.644;2023-03-17T05:21:37;4.32;;;2.20;;
45007;SDS011;30743;52.008;5.644;2023-03-17T05:24:03;4.28;;;2.53;;
45007;SDS011;30743;52.008;5.644;2023-03-17T05:26:30;5.55;;;2.15;;
45007;SDS011;30743;52.008;5.644;2023-03-17T05:28:56;3.75;;;2.25;;
45007;SDS011;30743;52.008;5.644;2023-03-17T05:31:22;3.50;;;2.13;;
45007;SDS011;30743;52.008;5.644;2023-03-17T05:33:47;5.07;;;2.63;;
45007;SDS011;30743;52.008;5.644;2023-03-17T05:36:14;3.00;;;1.92;;
45007;SDS011;30743;52.008;5.644;2023-03-17T05:38:40;3.65;;;2.50;;
45007;SDS011;30743;52.008;5.644;2023-03-17T05:41:05;5.07;;;2.00;;
45007;SDS011;30743;52.008;5.644;2023-03-17T05:43:31;3.45;;;1.98;;
45007;SDS011;30743;52.008;5.644;2023-03-17T05:45:57;5.55;;;2.10;;
45007;SDS011;30743;52.008;5.644;2023-03-17T05:48:22;3.63;;;2.05;;
45007;SDS011;30743;52.008;5.644;2023-03-17T05:50:48;5.03;;;2.40;;
45007;SDS011;30743;52.008;5.644;2023-03-17T05:53:14;4.13;;;2.05;;
45007;SDS011;30743;52.008;5.644;2023-03-17T05:55:40;3.67;;;2.30;;
45007;SDS011;30743;52.008;5.644;2023-03-17T05:58:06;5.15;;;2.75;;
45007;SDS011;30743;52.008;5.644;2023-03-17T06:00:33;4.10;;;2.15;;
45007;SDS011;30743;52.008;5.644;2023-03-17T06:02:59;4.10;;;2.13;;
45007;SDS011;30743;52.008;5.644;2023-03-17T06:05:26;4.25;;;1.98;;
45007;SDS011;30743;52.008;5.644;2023-03-17T06:07:51;3.70;;;2.25;;
45007;SDS011;30743;52.008;5.644;2023-03-17T06:10:17;3.03;;;1.95;;
45007;SDS011;30743;52.008;5.644;2023-03-17T06:12:42;2.92;;;1.88;;
45007;SDS011;30743;52.008;5.644;2023-03-17T06:15:08;3.88;;;2.28;;
45007;SDS011;30743;52.008;5.644;2023-03-17T06:17:35;4.47;;;2.38;;
45007;SDS011;30743;52.008;5.644;2023-03-17T06:20:01;4.25;;;2.15;;
45007;SDS011;30743;52.008;5.644;2023-03-17T06:22:27;5.28;;;2.42;;
45007;SDS011;30743;52.008;5.644;2023-03-17T06:24:53;4.95;;;2.53;;
45007;SDS011;30743;52.008;5.644;2023-03-17T06:27:18;4.38;;;2.10;;
45007;SDS011;30743;52.008;5.644;2023-03-17T06:29:44;3.78;;;2.38;;
45007;SDS011;30743;52.008;5.644;2023-03-17T06:32:10;4.82;;;2.38;;
45007;SDS011;30743;52.008;5.644;2023-03-17T06:34:36;4.03;;;2.33;;
45007;SDS011;30743;52.008;5.644;2023-03-17T06:37:02;3.03;;;2.17;;
45007;SDS011;30743;52.008;5.644;2023-03-17T06:39:28;5.82;;;2.40;;
45007;SDS011;30743;52.008;5.644;2023-03-17T06:41:54;4.57;;;2.58;;
45007;SDS011;30743;52.008;5.644;2023-03-17T06:44:20;5.25;;;2.55;;
45007;SDS011;30743;52.008;5.644;2023-03-17T06:46:46;4.32;;;2.47;;
45007;SDS011;30743;52.008;5.644;2023-03-17T06:49:11;3.90;;;2.30;;
45007;SDS011;30743;52.008;5.644;2023-03-17T06:51:37;3.70;;;2.33;;
45007;SDS011;30743;52.008;5.644;2023-03-17T06:54:04;4.75;;;2.10;;
45007;SDS011;30743;52.008;5.644;2023-03-17T06:56:30;4.78;;;2.10;;
45007;SDS011;30743;52.008;5.644;2023-03-17T06:58:56;6.32;;;2.40;;
45007;SDS011;30743;52.008;5.644;2023-03-17T07:01:22;4.80;;;2.30;;
45007;SDS011;30743;52.008;5.644;2023-03-17T07:03:48;3.80;;;1.85;;
45007;SDS011;30743;52.008;5.644;2023-03-17T07:06:14;5.15;;;2.42;;
45007;SDS011;30743;52.008;5.644;2023-03-17T07:08:40;5.47;;;2.47;;
45007;SDS011;30743;52.008;5.644;2023-03-17T07:11:05;4.90;;;2.20;;
45007;SDS011;30743;52.008;5.644;2023-03-17T07:13:31;4.70;;;2.33;;
45007;SDS011;30743;52.008;5.644;2023-03-17T07:16:02;4.15;;;2.05;;
45007;SDS011;30743;52.008;5.644;2023-03-17T07:18:29;2.90;;;2.03;;
45007;SDS011;30743;52.008;5.644;2023-03-17T07:20:56;3.97;;;2.30;;
45007;SDS011;30743;52.008;5.644;2023-03-17T07:23:22;6.10;;;2.50;;
45007;SDS011;30743;52.008;5.644;2023-03-17T07:25:48;4.05;;;2.38;;
45007;SDS011;30743;52.008;5.644;2023-03-17T07:28:14;4.15;;;2.53;;
45007;SDS011;30743;52.008;5.644;2023-03-17T07:30:40;4.28;;;2.42;;
45007;SDS011;30743;52.008;5.644;2023-03-17T07:33:10;2.13;;;1.60;;
45007;SDS011;30743;52.008;5.644;2023-03-17T07:35:36;5.88;;;2.42;;
45007;SDS011;30743;52.008;5.644;2023-03-17T07:38:02;4.07;;;2.58;;
45007;SDS011;30743;52.008;5.644;2023-03-17T07:40:28;5.53;;;2.60;;
45007;SDS011;30743;52.008;5.644;2023-03-17T07:42:53;4.00;;;2.33;;
45007;SDS011;30743;52.008;5.644;2023-03-17T07:45:19;5.90;;;2.40;;
45007;SDS011;30743;52.008;5.644;2023-03-17T07:47:45;4.63;;;2.47;;
45007;SDS011;30743;52.008;5.644;2023-03-17T07:50:10;5.50;;;2.42;;
45007;SDS011;30743;52.008;5.644;2023-03-17T07:52:36;6.35;;;2.35;;
45007;SDS011;30743;52.008;5.644;2023-03-17T07:55:03;4.85;;;2.22;;
45007;SDS011;30743;52.008;5.644;2023-03-17T07:57:32;3.47;;;2.03;;
45007;SDS011;30743;52.008;5.644;2023-03-17T07:59:58;4.00;;;2.20;;
45007;SDS011;30743;52.008;5.644;2023-03-17T08:02:23;3.17;;;2.30;;
45007;SDS011;30743;52.008;5.644;2023-03-17T08:04:49;4.57;;;2.45;;
45007;SDS011;30743;52.008;5.644;2023-03-17T08:07:15;5.00;;;2.08;;
45007;SDS011;30743;52.008;5.644;2023-03-17T08:09:40;2.88;;;2.03;;
45007;SDS011;30743;52.008;5.644;2023-03-17T08:12:06;3.88;;;2.15;;
45007;SDS011;30743;52.008;5.644;2023-03-17T08:14:33;3.13;;;2.00;;
45007;SDS011;30743;52.008;5.644;2023-03-17T08:16:58;5.00;;;2.45;;
45007;SDS011;30743;52.008;5.644;2023-03-17T08:19:24;3.75;;;2.40;;
45007;SDS011;30743;52.008;5.644;2023-03-17T08:21:50;3.80;;;2.05;;
45007;SDS011;30743;52.008;5.644;2023-03-17T08:24:15;4.72;;;2.10;;
45007;SDS011;30743;52.008;5.644;2023-03-17T08:26:41;4.03;;;2.28;;
45007;SDS011;30743;52.008;5.644;2023-03-17T08:29:07;8.02;;;2.50;;
45007;SDS011;30743;52.008;5.644;2023-03-17T08:31:33;4.22;;;2.10;;
45007;SDS011;30743;52.008;5.644;2023-03-17T08:33:59;3.60;;;2.10;;
45007;SDS011;30743;52.008;5.644;2023-03-17T08:36:26;4.28;;;2.15;;
45007;SDS011;30743;52.008;5.644;2023-03-17T08:38:52;4.05;;;2.00;;
45007;SDS011;30743;52.008;5.644;2023-03-17T08:41:20;3.63;;;1.98;;
45007;SDS011;30743;52.008;5.644;2023-03-17T08:43:47;4.25;;;2.10;;
45007;SDS011;30743;52.008;5.644;2023-03-17T08:48:45;3.80;;;2.42;;
45007;SDS011;30743;52.008;5.644;2023-03-17T08:51:12;4.18;;;2.17;;
45007;SDS011;30743;52.008;5.644;2023-03-17T08:53:38;5.72;;;2.17;;
45007;SDS011;30743;52.008;5.644;2023-03-17T08:56:04;4.70;;;2.45;;
45007;SDS011;30743;52.008;5.644;2023-03-17T08:58:31;3.35;;;2.13;;
45007;SDS011;30743;52.008;5.644;2023-03-17T09:00:58;3.17;;;2.15;;
45007;SDS011;30743;52.008;5.644;2023-03-17T09:03:25;2.72;;;1.90;;
45007;SDS011;30743;52.008;5.644;2023-03-17T09:05:51;3.20;;;2.03;;
45007;SDS011;30743;52.008;5.644;2023-03-17T09:08:16;7.25;;;2.30;;
45007;SDS011;30743;52.008;5.644;2023-03-17T09:10:42;5.10;;;2.05;;
45007;SDS011;30743;52.008;5.644;2023-03-17T09:13:08;4.68;;;2.10;;
45007;SDS011;30743;52.008;5.644;2023-03-17T09:15:34;4.68;;;1.85;;
45007;SDS011;30743;52.008;5.644;2023-03-17T09:18:00;4.47;;;1.92;;
45007;SDS011;30743;52.008;5.644;2023-03-17T09:20:27;3.50;;;2.13;;
45007;SDS011;30743;52.008;5.644;2023-03-17T09:22:52;6.35;;;2.03;;
45007;SDS011;30743;52.008;5.644;2023-03-17T09:25:18;3.22;;;1.77;;
45007;SDS011;30743;52.008;5.644;2023-03-17T09:27:44;4.63;;;1.95;;
45007;SDS011;30743;52.008;5.644;2023-03-17T09:30:10;3.42;;;1.75;;
45007;SDS011;30743;52.008;5.644;2023-03-17T09:32:40;4.78;;;2.10;;
45007;SDS011;30743;52.008;5.644;2023-03-17T09:35:06;4.35;;;1.85;;
45007;SDS011;30743;52.008;5.644;2023-03-17T09:37:32;4.30;;;1.80;;
45007;SDS011;30743;52.008;5.644;2023-03-17T09:40:01;3.88;;;2.47;;
45007;SDS011;30743;52.008;5.644;2023-03-17T09:45:38;7.40;;;2.28;;
45007;SDS011;30743;52.008;5.644;2023-03-17T09:50:44;2.75;;;2.20;;
45007;SDS011;30743;52.008;5.644;2023-03-17T09:53:34;4.25;;;2.15;;
45007;SDS011;30743;52.008;5.644;2023-03-17T09:56:07;4.25;;;2.53;;
45007;SDS011;30743;52.008;5.644;2023-03-17T09:58:37;5.32;;;2.50;;
45007;SDS011;30743;52.008;5.644;2023-03-17T10:01:07;3.80;;;2.00;;
45007;SDS011;30743;52.008;5.644;2023-03-17T10:03:34;5.82;;;2.25;;
45007;SDS011;30743;52.008;5.644;2023-03-17T10:08:58;4.68;;;2.80;;
45007;SDS011;30743;52.008;5.644;2023-03-17T10:11:29;3.33;;;2.53;;
45007;SDS011;30743;52.008;5.644;2023-03-17T10:14:02;4.85;;;2.47;;
45007;SDS011;30743;52.008;5.644;2023-03-17T10:19:24;5.00;;;2.33;;
45007;SDS011;30743;52.008;5.644;2023-03-17T10:22:45;3.72;;;2.22;;
45007;SDS011;30743;52.008;5.644;2023-03-17T10:25:04;3.25;;;2.05;;
45007;SDS011;30743;52.008;5.644;2023-03-17T10:27:41;2.63;;;1.98;;
45007;SDS011;30743;52.008;5.644;2023-03-17T10:30:19;4.38;;;2.40;;
45007;SDS011;30743;52.008;5.644;2023-03-17T10:32:46;5.13;;;1.98;;
45007;SDS011;30743;52.008;5.644;2023-03-17T10:35:12;3.78;;;2.35;;
45007;SDS011;30743;52.008;5.644;2023-03-17T10:37:40;3.60;;;2.40;;
45007;SDS011;30743;52.008;5.644;2023-03-17T10:40:06;3.95;;;2.42;;
45007;SDS011;30743;52.008;5.644;2023-03-17T10:42:47;5.53;;;2.60;;
45007;SDS011;30743;52.008;5.644;2023-03-17T10:45:21;7.75;;;2.97;;
45007;SDS011;30743;52.008;5.644;2023-03-17T10:47:53;6.60;;;2.63;;
45007;SDS011;30743;52.008;5.644;2023-03-17T10:52:59;5.80;;;2.35;;
45007;SDS011;30743;52.008;5.644;2023-03-17T10:55:38;4.50;;;2.30;;
45007;SDS011;30743;52.008;5.644;2023-03-17T10:58:24;6.18;;;2.25;;
45007;SDS011;30743;52.008;5.644;2023-03-17T11:03:43;9.68;;;2.83;;
45007;SDS011;30743;52.008;5.644;2023-03-17T11:06:14;3.10;;;2.17;;
45007;SDS011;30743;52.008;5.644;2023-03-17T11:08:45;6.15;;;2.53;;
45007;SDS011;30743;52.008;5.644;2023-03-17T11:11:26;3.13;;;2.08;;
45007;SDS011;30743;52.008;5.644;2023-03-17T11:14:05;4.25;;;2.22;;
45007;SDS011;30743;52.008;5.644;2023-03-17T11:16:44;7.10;;;2.78;;
45007;SDS011;30743;52.008;5.644;2023-03-17T11:19:17;6.15;;;2.53;;
45007;SDS011;30743;52.008;5.644;2023-03-17T11:24:24;7.30;;;2.53;;
45007;SDS011;30743;52.008;5.644;2023-03-17T11:26:59;4.55;;;2.60;;
45007;SDS011;30743;52.008;5.644;2023-03-17T11:29:47;3.72;;;2.65;;
45007;SDS011;30743;52.008;5.644;2023-03-17T11:32:24;6.40;;;2.58;;
45007;SDS011;30743;52.008;5.644;2023-03-17T11:35:12;5.85;;;2.78;;
45007;SDS011;30743;52.008;5.644;2023-03-17T11:38:03;7.03;;;2.95;;
45007;SDS011;30743;52.008;5.644;2023-03-17T11:43:57;6.38;;;2.90;;
45007;SDS011;30743;52.008;5.644;2023-03-17T11:46:35;8.25;;;3.58;;
45007;SDS011;30743;52.008;5.644;2023-03-17T11:55:08;11.00;;;3.95;;
45007;SDS011;30743;52.008;5.644;2023-03-17T11:57:47;6.13;;;3.65;;
45007;SDS011;30743;52.008;5.644;2023-03-17T12:03:16;6.70;;;3.17;;
45007;SDS011;30743;52.008;5.644;2023-03-17T12:05:50;5.43;;;3.28;;
45007;SDS011;30743;52.008;5.644;2023-03-17T12:08:55;5.57;;;3.20;;
45007;SDS011;30743;52.008;5.644;2023-03-17T12:11:20;6.32;;;3.30;;
45007;SDS011;30743;52.008;5.644;2023-03-17T12:13:50;4.85;;;2.90;;
45007;SDS011;30743;52.008;5.644;2023-03-17T12:16:34;6.88;;;2.60;;
45007;SDS011;30743;52.008;5.644;2023-03-17T12:19:26;5.45;;;2.60;;
45007;SDS011;30743;52.008;5.644;2023-03-17T12:22:26;5.00;;;2.80;;
45007;SDS011;30743;52.008;5.644;2023-03-17T12:25:02;6.30;;;2.67;;
45007;SDS011;30743;52.008;5.644;2023-03-17T12:27:55;4.05;;;2.80;;
45007;SDS011;30743;52.008;5.644;2023-03-17T12:30:29;5.45;;;2.95;;
45007;SDS011;30743;52.008;5.644;2023-03-17T12:36:12;5.32;;;3.03;;
45007;SDS011;30743;52.008;5.644;2023-03-17T12:38:55;4.10;;;2.63;;
45007;SDS011;30743;52.008;5.644;2023-03-17T12:55:54;8.38;;;3.17;;
45007;SDS011;30743;52.008;5.644;2023-03-17T13:03:55;5.43;;;3.20;;
45007;SDS011;30743;52.008;5.644;2023-03-17T13:06:40;6.78;;;2.90;;
45007;SDS011;30743;52.008;5.644;2023-03-17T13:12:33;3.40;;;2.58;;
45007;SDS011;30743;52.008;5.644;2023-03-17T13:23:33;6.25;;;3.40;;
45007;SDS011;30743;52.008;5.644;2023-03-17T13:26:18;3.75;;;2.65;;
45007;SDS011;30743;52.008;5.644;2023-03-17T13:28:46;4.73;;;2.53;;
45007;SDS011;30743;52.008;5.644;2023-03-17T13:33:52;6.60;;;2.88;;
45007;SDS011;30743;52.008;5.644;2023-03-17T13:47:48;4.45;;;2.65;;
45007;SDS011;30743;52.008;5.644;2023-03-17T13:50:16;7.25;;;3.03;;
45007;SDS011;30743;52.008;5.644;2023-03-17T13:52:54;4.63;;;2.88;;
45007;SDS011;30743;52.008;5.644;2023-03-17T14:00:32;8.23;;;2.90;;
45007;SDS011;30743;52.008;5.644;2023-03-17T14:03:15;10.57;;;3.47;;
45007;SDS011;30743;52.008;5.644;2023-03-17T14:05:50;4.72;;;3.10;;
45007;SDS011;30743;52.008;5.644;2023-03-17T14:08:20;4.03;;;2.60;;
45007;SDS011;30743;52.008;5.644;2023-03-17T14:10:56;8.50;;;3.33;;
45007;SDS011;30743;52.008;5.644;2023-03-17T14:16:14;5.30;;;3.03;;
45007;SDS011;30743;52.008;5.644;2023-03-17T14:18:57;7.15;;;3.00;;
45007;SDS011;30743;52.008;5.644;2023-03-17T14:21:32;6.90;;;3.17;;
45007;SDS011;30743;52.008;5.644;2023-03-17T14:23:59;8.82;;;3.40;;
45007;SDS011;30743;52.008;5.644;2023-03-17T14:26:27;4.60;;;2.83;;
45007;SDS011;30743;52.008;5.644;2023-03-17T14:28:54;7.30;;;3.10;;
45007;SDS011;30743;52.008;5.644;2023-03-17T14:31:23;6.32;;;3.08;;
45007;SDS011;30743;52.008;5.644;2023-03-17T14:33:53;5.05;;;3.13;;
45007;SDS011;30743;52.008;5.644;2023-03-17T14:36:21;5.32;;;2.85;;
45007;SDS011;30743;52.008;5.644;2023-03-17T14:38:48;7.97;;;3.35;;
45007;SDS011;30743;52.008;5.644;2023-03-17T14:41:17;5.45;;;2.97;;
45007;SDS011;30743;52.008;5.644;2023-03-17T14:43:48;6.03;;;3.40;;
45007;SDS011;30743;52.008;5.644;2023-03-17T14:46:25;5.35;;;2.95;;
45007;SDS011;30743;52.008;5.644;2023-03-17T14:48:58;5.50;;;3.47;;
45007;SDS011;30743;52.008;5.644;2023-03-17T14:51:32;5.53;;;3.10;;
45007;SDS011;30743;52.008;5.644;2023-03-17T14:54:03;7.38;;;3.33;;
45007;SDS011;30743;52.008;5.644;2023-03-17T14:56:47;5.72;;;3.05;;
45007;SDS011;30743;52.008;5.644;2023-03-17T15:01:46;5.65;;;2.88;;
45007;SDS011;30743;52.008;5.644;2023-03-17T15:06:51;6.43;;;3.33;;
45007;SDS011;30743;52.008;5.644;2023-03-17T15:12:02;4.47;;;3.33;;
45007;SDS011;30743;52.008;5.644;2023-03-17T15:14:31;6.53;;;4.07;;
45007;SDS011;30743;52.008;5.644;2023-03-17T15:17:02;7.20;;;3.53;;
45007;SDS011;30743;52.008;5.644;2023-03-17T15:22:20;7.18;;;3.50;;
45007;SDS011;30743;52.008;5.644;2023-03-17T15:27:29;7.88;;;4.07;;
45007;SDS011;30743;52.008;5.644;2023-03-17T15:29:55;8.52;;;3.70;;
45007;SDS011;30743;52.008;5.644;2023-03-17T15:32:22;6.25;;;4.22;;
45007;SDS011;30743;52.008;5.644;2023-03-17T15:34:50;9.35;;;3.92;;
45007;SDS011;30743;52.008;5.644;2023-03-17T15:37:19;5.85;;;4.22;;
45007;SDS011;30743;52.008;5.644;2023-03-17T15:39:50;6.68;;;4.15;;
45007;SDS011;30743;52.008;5.644;2023-03-17T15:42:17;5.57;;;4.20;;
45007;SDS011;30743;52.008;5.644;2023-03-17T15:44:44;6.53;;;3.88;;
45007;SDS011;30743;52.008;5.644;2023-03-17T15:47:13;8.10;;;4.22;;
45007;SDS011;30743;52.008;5.644;2023-03-17T15:49:40;8.68;;;4.00;;
45007;SDS011;30743;52.008;5.644;2023-03-17T15:52:13;6.05;;;4.00;;
45007;SDS011;30743;52.008;5.644;2023-03-17T15:54:40;7.43;;;4.20;;
45007;SDS011;30743;52.008;5.644;2023-03-17T15:57:07;6.35;;;4.18;;
45007;SDS011;30743;52.008;5.644;2023-03-17T15:59:37;5.05;;;3.55;;
45007;SDS011;30743;52.008;5.644;2023-03-17T16:02:10;5.63;;;4.05;;
45007;SDS011;30743;52.008;5.644;2023-03-17T16:04:56;6.55;;;4.43;;
45007;SDS011;30743;52.008;5.644;2023-03-17T16:07:29;8.70;;;4.72;;
45007;SDS011;30743;52.008;5.644;2023-03-17T16:09:55;11.15;;;4.43;;
45007;SDS011;30743;52.008;5.644;2023-03-17T16:12:21;7.85;;;4.55;;
45007;SDS011;30743;52.008;5.644;2023-03-17T16:14:47;7.63;;;3.90;;
45007;SDS011;30743;52.008;5.644;2023-03-17T16:17:18;9.93;;;4.90;;
45007;SDS011;30743;52.008;5.644;2023-03-17T16:19:52;6.93;;;4.10;;
45007;SDS011;30743;52.008;5.644;2023-03-17T16:22:36;7.93;;;4.43;;
45007;SDS011;30743;52.008;5.644;2023-03-17T16:25:03;5.53;;;4.43;;
45007;SDS011;30743;52.008;5.644;2023-03-17T16:27:41;7.38;;;4.38;;
45007;SDS011;30743;52.008;5.644;2023-03-17T16:30:12;8.65;;;4.25;;
45007;SDS011;30743;52.008;5.644;2023-03-17T16:32:43;6.25;;;4.20;;
45007;SDS011;30743;52.008;5.644;2023-03-17T16:35:12;6.32;;;4.05;;
45007;SDS011;30743;52.008;5.644;2023-03-17T16:37:42;10.13;;;4.78;;
45007;SDS011;30743;52.008;5.644;2023-03-17T16:40:15;10.30;;;4.47;;
45007;SDS011;30743;52.008;5.644;2023-03-17T16:42:48;6.90;;;4.20;;
45007;SDS011;30743;52.008;5.644;2023-03-17T16:45:17;6.45;;;3.78;;
45007;SDS011;30743;52.008;5.644;2023-03-17T16:47:47;5.57;;;3.75;;
45007;SDS011;30743;52.008;5.644;2023-03-17T16:50:16;9.05;;;3.80;;
45007;SDS011;30743;52.008;5.644;2023-03-17T16:52:44;5.32;;;3.45;;
45007;SDS011;30743;52.008;5.644;2023-03-17T16:55:10;5.57;;;3.60;;